createdAt,value
2019-02-15T00:00:32.204Z,4.00
2019-02-15T00:03:01.756Z,6.20
2019-02-15T00:05:31.279Z,4.40
2019-02-15T00:08:00.871Z,4.00
2019-02-15T00:10:31.385Z,4.00
2019-02-15T00:13:00.948Z,3.20
2019-02-15T00:15:30.455Z,4.20
2019-02-15T00:18:01.601Z,5.60
2019-02-15T00:20:32.676Z,5.60
2019-02-15T00:23:02.261Z,4.60
2019-02-15T00:25:31.802Z,5.00
2019-02-15T00:28:01.332Z,5.00
2019-02-15T00:30:30.914Z,4.20
2019-02-15T00:33:00.475Z,5.00
2019-02-15T00:35:29.997Z,3.20
2019-02-15T00:37:59.562Z,4.00
2019-02-15T00:40:29.109Z,1.60
2019-02-15T00:42:58.664Z,4.00
2019-02-15T00:45:30.038Z,2.00
2019-02-15T00:48:04.061Z,5.00
2019-02-15T00:50:38.185Z,4.40
2019-02-15T00:53:09.324Z,4.00
2019-02-15T00:55:49.603Z,5.00
2019-02-15T00:58:20.723Z,5.80
2019-02-15T01:00:58.761Z,5.00
2019-02-15T01:03:32.704Z,4.20
2019-02-15T01:06:20.382Z,5.00
2019-02-15T01:08:54.406Z,5.00
2019-02-15T01:11:25.625Z,5.00
2019-02-15T01:13:55.109Z,4.60
2019-02-15T01:16:24.615Z,1.00
2019-02-15T01:18:54.243Z,5.40
2019-02-15T01:21:23.786Z,5.80
2019-02-15T01:23:53.307Z,4.40
2019-02-15T01:26:33.350Z,7.00
2019-02-15T01:29:04.474Z,3.20
2019-02-15T01:31:38.636Z,5.00
2019-02-15T01:34:09.762Z,5.00
2019-02-15T01:36:40.891Z,3.20
2019-02-15T01:39:17.977Z,4.00
2019-02-15T01:42:05.601Z,4.40
2019-02-15T01:44:36.833Z,5.00
2019-02-15T01:47:08.039Z,5.00
2019-02-15T01:49:37.517Z,4.80
2019-02-15T01:52:08.219Z,3.20
2019-02-15T01:54:38.076Z,4.00
2019-02-15T01:57:07.568Z,3.20
2019-02-15T01:59:37.249Z,4.80
2019-02-15T02:02:06.757Z,5.40
2019-02-15T02:04:36.314Z,4.60
2019-02-15T02:07:05.959Z,4.20
2019-02-15T02:09:35.681Z,4.60
2019-02-15T02:12:05.938Z,4.60
2019-02-15T02:14:35.451Z,4.60
2019-02-15T02:17:05.016Z,5.80
2019-02-15T02:19:34.729Z,7.00
2019-02-15T02:22:04.356Z,5.80
2019-02-15T02:24:34.055Z,5.60
2019-02-15T02:27:03.586Z,6.20
2019-02-15T02:29:33.131Z,7.00
2019-02-15T02:32:02.749Z,7.00
2019-02-15T02:34:32.229Z,4.60
2019-02-15T02:37:01.760Z,4.00
2019-02-15T02:39:31.322Z,5.00
2019-02-15T02:42:00.860Z,5.00
2019-02-15T02:44:30.498Z,5.00
2019-02-15T02:47:00.112Z,7.00
2019-02-15T02:49:29.616Z,5.00
2019-02-15T02:51:59.140Z,5.40
2019-02-15T02:54:28.837Z,5.00
2019-02-15T02:56:58.445Z,4.60
2019-02-15T02:59:28.007Z,6.20
2019-02-15T03:01:57.545Z,4.80
2019-02-15T03:04:27.069Z,4.40
2019-02-15T03:06:56.641Z,7.20
2019-02-15T03:09:26.279Z,6.40
2019-02-15T03:11:55.798Z,4.40
2019-02-15T03:14:25.392Z,7.00
2019-02-15T03:16:54.941Z,4.60
2019-02-15T03:19:24.416Z,4.60
2019-02-15T03:21:53.997Z,7.80
2019-02-15T03:24:23.561Z,6.20
2019-02-15T03:26:53.124Z,5.80
2019-02-15T03:29:22.709Z,5.40
2019-02-15T03:31:52.247Z,7.80
2019-02-15T03:34:21.793Z,7.00
2019-02-15T03:36:52.969Z,5.00
2019-02-15T03:39:33.302Z,6.20
2019-02-15T03:42:02.874Z,4.80
2019-02-15T03:44:32.425Z,4.40
2019-02-15T03:47:02.017Z,8.00
2019-02-15T03:49:31.550Z,7.60
2019-02-15T03:52:01.036Z,6.60
2019-02-15T03:54:30.669Z,4.20
2019-02-15T03:57:00.305Z,7.40
2019-02-15T03:59:29.849Z,6.60
2019-02-15T04:01:59.415Z,4.00
2019-02-15T04:04:29.039Z,5.80
2019-02-15T04:06:58.590Z,7.80
2019-02-15T04:09:29.224Z,4.80
2019-02-15T04:11:58.780Z,5.40
2019-02-15T04:14:32.817Z,6.40
2019-02-15T04:16:59.711Z,5.00
2019-02-15T04:19:29.227Z,7.00
2019-02-15T04:21:58.768Z,6.20
2019-02-15T04:24:28.389Z,8.00
2019-02-15T04:26:57.959Z,6.20
2019-02-15T04:29:29.247Z,5.40
2019-02-15T04:31:58.807Z,6.60
2019-02-15T04:34:29.493Z,9.20
2019-02-15T04:36:59.053Z,7.40
2019-02-15T04:39:28.542Z,7.20
2019-02-15T04:41:58.141Z,9.20
2019-02-15T04:44:27.636Z,9.00
2019-02-15T04:46:58.330Z,6.60
2019-02-15T04:49:27.832Z,8.80
2019-02-15T04:51:57.376Z,7.00
2019-02-15T04:54:27.151Z,8.20
2019-02-15T04:56:56.799Z,8.80
2019-02-15T04:59:26.392Z,10.20
2019-02-15T05:01:56.217Z,5.20
2019-02-15T05:04:25.764Z,8.00
2019-02-15T05:06:55.426Z,1.00
2019-02-15T05:09:25.040Z,7.60
2019-02-15T05:11:54.644Z,8.60
2019-02-15T05:14:25.233Z,8.20
2019-02-15T05:16:54.750Z,8.00
2019-02-15T05:19:24.276Z,6.20
2019-02-15T05:21:53.861Z,5.20
2019-02-15T05:24:24.541Z,8.00
2019-02-15T05:26:54.147Z,7.80
2019-02-15T05:29:23.648Z,8.00
2019-02-15T05:31:53.191Z,8.40
2019-02-15T05:34:22.789Z,5.00
2019-02-15T05:36:52.356Z,6.20
2019-02-15T05:39:21.891Z,9.00
2019-02-15T05:41:51.507Z,7.60
2019-02-15T05:44:22.147Z,8.40
2019-02-15T05:46:51.708Z,11.80
2019-02-15T05:49:21.253Z,5.80
2019-02-15T05:51:50.810Z,10.60
2019-02-15T05:54:20.390Z,10.20
2019-02-15T05:56:50.096Z,10.60
2019-02-15T05:59:19.693Z,7.20
2019-02-15T06:01:49.324Z,7.80
2019-02-15T06:04:19.006Z,10.40
2019-02-15T06:06:48.607Z,11.00
2019-02-15T06:09:18.190Z,8.60
2019-02-15T06:11:47.744Z,8.80
2019-02-15T06:14:17.288Z,6.60
2019-02-15T06:16:47.105Z,11.00
2019-02-15T06:19:16.838Z,9.20
2019-02-15T06:21:46.423Z,8.00
2019-02-15T06:24:16.061Z,10.00
2019-02-15T06:26:45.617Z,9.00
2019-02-15T06:29:15.225Z,8.80
2019-02-15T06:31:44.773Z,6.40
2019-02-15T06:34:14.821Z,8.20
2019-02-15T06:36:44.463Z,8.60
2019-02-15T06:39:14.142Z,10.40
2019-02-15T06:41:43.720Z,10.00
2019-02-15T06:44:14.404Z,8.40
2019-02-15T06:46:43.950Z,12.00
2019-02-15T06:49:13.509Z,11.00
2019-02-15T06:51:43.431Z,9.00
2019-02-15T06:54:12.985Z,5.80
2019-02-15T06:56:42.535Z,11.00
2019-02-15T06:59:22.665Z,9.60
2019-02-15T07:01:59.662Z,9.40
2019-02-15T07:04:30.832Z,13.20
2019-02-15T07:07:00.388Z,6.60
2019-02-15T07:09:29.963Z,9.00
2019-02-15T07:11:59.543Z,9.00
2019-02-15T07:14:29.100Z,7.60
2019-02-15T07:16:58.679Z,9.00
2019-02-15T07:19:28.236Z,8.00
2019-02-15T07:21:57.769Z,9.00
2019-02-15T07:24:27.313Z,8.80
2019-02-15T07:26:57.131Z,8.00
2019-02-15T07:29:26.783Z,4.20
2019-02-15T07:31:56.319Z,11.20
2019-02-15T07:34:25.957Z,8.60
2019-02-15T07:36:55.513Z,12.40
2019-02-15T07:39:25.189Z,10.80
2019-02-15T07:41:54.750Z,10.20
2019-02-15T07:44:24.432Z,10.20
2019-02-15T07:46:54.015Z,9.00
2019-02-15T07:49:26.791Z,9.20
2019-02-15T07:51:54.767Z,8.20
2019-02-15T07:54:24.467Z,12.60
2019-02-15T07:56:54.023Z,9.60
2019-02-15T07:59:23.662Z,10.60
2019-02-15T08:02:01.434Z,10.20
2019-02-15T08:04:24.674Z,10.00
2019-02-15T08:06:54.204Z,8.80
2019-02-15T08:09:23.748Z,10.40
2019-02-15T08:11:53.349Z,10.20
2019-02-15T08:14:22.928Z,9.20
2019-02-15T08:16:52.557Z,9.00
2019-02-15T08:19:22.466Z,8.80
2019-02-15T08:21:51.996Z,8.80
2019-02-15T08:24:21.565Z,9.20
2019-02-15T08:26:51.423Z,9.00
2019-02-15T08:29:20.975Z,9.40
2019-02-15T08:31:50.493Z,10.40
2019-02-15T08:34:20.370Z,9.00
2019-02-15T08:36:50.030Z,10.40
2019-02-15T08:39:19.586Z,9.20
2019-02-15T08:42:00.623Z,10.40
2019-02-15T08:44:20.568Z,12.60
2019-02-15T08:46:50.375Z,7.20
2019-02-15T08:49:19.914Z,10.40
2019-02-15T08:51:49.488Z,9.20
2019-02-15T08:54:19.253Z,10.00
2019-02-15T08:56:49.120Z,11.00
2019-02-15T08:59:18.667Z,10.20
2019-02-15T09:01:49.972Z,9.60
2019-02-15T09:04:20.811Z,9.20
2019-02-15T09:06:50.409Z,12.20
2019-02-15T09:09:19.960Z,10.00
2019-02-15T09:11:49.619Z,11.00
2019-02-15T09:14:19.223Z,9.00
2019-02-15T09:16:48.822Z,9.20
2019-02-15T09:19:18.387Z,11.60
2019-02-15T09:21:48.125Z,8.20
2019-02-15T09:24:17.731Z,12.20
2019-02-15T09:26:47.327Z,12.60
2019-02-15T09:29:16.867Z,10.00
2019-02-15T09:31:46.436Z,10.40
2019-02-15T09:34:16.038Z,10.20
2019-02-15T09:36:45.668Z,10.20
2019-02-15T09:39:15.255Z,13.80
2019-02-15T09:41:44.821Z,10.20
2019-02-15T09:44:14.370Z,15.60
2019-02-15T09:46:44.066Z,11.40
2019-02-15T09:49:13.644Z,10.60
2019-02-15T09:51:43.330Z,10.00
2019-02-15T09:54:12.879Z,9.40
2019-02-15T09:56:42.521Z,12.00
2019-02-15T09:59:12.113Z,10.40
2019-02-15T10:01:41.675Z,12.80
2019-02-15T10:04:11.417Z,14.00
2019-02-15T10:06:42.072Z,8.40
2019-02-15T10:09:11.649Z,12.80
2019-02-15T10:11:41.502Z,13.00
2019-02-15T10:14:11.070Z,14.00
2019-02-15T10:16:40.693Z,12.20
2019-02-15T10:19:10.277Z,12.20
2019-02-15T10:21:39.926Z,12.00
2019-02-15T10:24:09.497Z,16.40
2019-02-15T10:26:39.093Z,13.20
2019-02-15T10:29:08.620Z,11.60
2019-02-15T10:31:38.267Z,15.40
2019-02-15T10:34:07.911Z,13.60
2019-02-15T10:36:37.443Z,13.20
2019-02-15T10:39:07.024Z,12.80
2019-02-15T10:41:36.647Z,11.20
2019-02-15T10:44:06.188Z,8.80
2019-02-15T10:46:37.870Z,10.40
2019-02-15T10:49:06.971Z,11.20
2019-02-15T10:51:36.550Z,9.80
2019-02-15T10:54:06.105Z,11.00
2019-02-15T10:56:35.659Z,12.40
2019-02-15T10:59:05.250Z,10.60
2019-02-15T11:01:34.815Z,10.00
2019-02-15T11:04:04.366Z,10.00
2019-02-15T11:06:35.218Z,12.60
2019-02-15T11:09:05.677Z,10.80
2019-02-15T11:11:35.276Z,14.00
2019-02-15T11:14:04.857Z,13.80
2019-02-15T11:16:34.407Z,13.00
2019-02-15T11:19:03.994Z,10.80
2019-02-15T11:21:34.636Z,10.00
2019-02-15T11:24:04.457Z,11.40
2019-02-15T11:26:34.007Z,8.00
2019-02-15T11:29:03.545Z,9.40
2019-02-15T11:31:33.148Z,9.60
2019-02-15T11:34:02.732Z,9.60
2019-02-15T11:36:32.314Z,13.40
2019-02-15T11:39:02.021Z,10.00
2019-02-15T11:41:33.327Z,8.80
2019-02-15T11:44:02.899Z,11.20
2019-02-15T11:46:32.433Z,6.80
2019-02-15T11:49:03.061Z,6.60
2019-02-15T11:51:32.581Z,9.60
2019-02-15T11:54:02.139Z,11.40
2019-02-15T11:56:31.673Z,7.20
2019-02-15T11:59:01.428Z,10.40
2019-02-15T12:01:30.981Z,10.40
2019-02-15T12:04:00.943Z,11.40
2019-02-15T12:06:30.485Z,6.60
2019-02-15T12:09:00.061Z,7.20
2019-02-15T12:11:29.881Z,9.00
2019-02-15T12:13:59.458Z,9.60
2019-02-15T12:16:29.049Z,8.40
2019-02-15T12:18:58.587Z,10.00
2019-02-15T12:21:28.096Z,10.60
2019-02-15T12:23:57.630Z,10.00
2019-02-15T12:26:27.276Z,9.60
2019-02-15T12:28:56.809Z,10.20
2019-02-15T12:31:26.708Z,10.00
2019-02-15T12:33:56.226Z,10.60
2019-02-15T12:36:25.864Z,11.00
2019-02-15T12:38:55.446Z,10.60
2019-02-15T12:41:25.082Z,9.20
2019-02-15T12:43:54.613Z,10.80
2019-02-15T12:46:24.326Z,12.00
2019-02-15T12:48:53.869Z,7.60
2019-02-15T12:51:23.419Z,9.00
2019-02-15T12:53:52.974Z,8.60
2019-02-15T12:56:22.618Z,8.00
2019-02-15T12:58:52.166Z,9.80
2019-02-15T13:01:21.706Z,9.20
2019-02-15T13:03:51.234Z,9.80
2019-02-15T13:06:28.385Z,10.00
2019-02-15T13:08:51.978Z,10.40
2019-02-15T13:11:21.580Z,10.00
2019-02-15T13:13:51.105Z,9.00
2019-02-15T13:16:20.690Z,10.00
2019-02-15T13:18:51.217Z,10.40
2019-02-15T13:21:21.007Z,9.20
2019-02-15T13:23:50.559Z,9.00
2019-02-15T13:26:20.286Z,9.00
2019-02-15T13:28:50.106Z,9.60
2019-02-15T13:31:19.948Z,11.80
2019-02-15T13:33:49.551Z,8.60
2019-02-15T13:36:19.098Z,10.00
2019-02-15T13:38:48.955Z,10.80
2019-02-15T13:41:18.537Z,10.00
2019-02-15T13:43:48.257Z,8.80
2019-02-15T13:46:17.812Z,6.80
2019-02-15T13:48:47.460Z,8.80
2019-02-15T13:51:17.108Z,5.40
2019-02-15T13:53:46.693Z,10.20
2019-02-15T13:56:16.339Z,5.80
2019-02-15T13:58:45.877Z,8.20
2019-02-15T14:01:15.454Z,8.80
2019-02-15T14:03:45.194Z,6.80
2019-02-15T14:06:14.752Z,9.00
2019-02-15T14:08:44.422Z,5.40
2019-02-15T14:11:14.148Z,9.00
2019-02-15T14:13:43.709Z,9.40
2019-02-15T14:16:13.234Z,8.40
2019-02-15T14:18:42.824Z,8.40
2019-02-15T14:21:12.494Z,8.60
2019-02-15T14:23:42.140Z,7.40
2019-02-15T14:26:11.667Z,7.40
2019-02-15T14:28:41.242Z,6.60
2019-02-15T14:31:10.832Z,7.20
2019-02-15T14:33:40.428Z,9.00
2019-02-15T14:36:09.989Z,6.00
2019-02-15T14:38:39.773Z,6.60
2019-02-15T14:41:10.259Z,6.80
2019-02-15T14:43:39.902Z,7.00
2019-02-15T14:46:09.481Z,7.20
2019-02-15T14:48:39.078Z,5.00
2019-02-15T14:51:08.605Z,6.00
2019-02-15T14:53:38.410Z,8.60
2019-02-15T14:56:08.095Z,6.20
2019-02-15T14:58:37.742Z,7.00
2019-02-15T15:01:07.574Z,6.00
2019-02-15T15:03:37.129Z,6.40
2019-02-15T15:06:06.670Z,6.40
2019-02-15T15:08:36.230Z,7.20
2019-02-15T15:11:06.106Z,6.00
2019-02-15T15:13:35.794Z,6.40
2019-02-15T15:16:05.380Z,5.20
2019-02-15T15:18:34.893Z,6.00
2019-02-15T15:21:04.555Z,6.20
2019-02-15T15:23:34.304Z,6.80
2019-02-15T15:26:11.583Z,6.40
2019-02-15T15:28:35.067Z,6.00
2019-02-15T15:31:04.679Z,5.20
2019-02-15T15:33:34.213Z,5.60
2019-02-15T15:36:03.972Z,7.20
2019-02-15T15:38:33.598Z,9.20
2019-02-15T15:41:03.170Z,9.20
2019-02-15T15:43:33.830Z,8.40
2019-02-15T15:46:03.417Z,5.40
2019-02-15T15:48:32.966Z,9.00
2019-02-15T15:51:02.805Z,7.60
2019-02-15T15:53:32.359Z,8.00
2019-02-15T15:56:01.925Z,7.60
2019-02-15T15:58:31.511Z,8.80
2019-02-15T16:01:01.136Z,6.40
2019-02-15T16:03:44.030Z,9.80
2019-02-15T16:06:23.753Z,6.40
2019-02-15T16:08:45.180Z,9.00
2019-02-15T16:11:14.829Z,8.40
2019-02-15T16:13:45.549Z,8.80
2019-02-15T16:16:15.683Z,9.00
2019-02-15T16:18:45.309Z,8.00
2019-02-15T16:21:14.972Z,7.40
2019-02-15T16:23:44.482Z,3.60
2019-02-15T16:26:14.060Z,6.40
2019-02-15T16:28:43.607Z,9.00
2019-02-15T16:31:13.125Z,8.00
2019-02-15T16:33:42.682Z,9.00
2019-02-15T16:36:12.246Z,9.00
2019-02-15T16:38:41.770Z,8.80
2019-02-15T16:41:11.320Z,7.40
2019-02-15T16:43:41.301Z,11.00
2019-02-15T16:46:10.895Z,10.00
2019-02-15T16:48:42.314Z,12.00
2019-02-15T16:51:11.693Z,8.20
2019-02-15T16:53:41.189Z,9.80
2019-02-15T16:56:10.709Z,11.80
2019-02-15T16:58:40.288Z,8.60
2019-02-15T17:01:09.805Z,11.60
2019-02-15T17:03:39.329Z,8.40
2019-02-15T17:06:08.899Z,11.80
2019-02-15T17:08:38.399Z,13.60
2019-02-15T17:11:07.914Z,8.00
2019-02-15T17:13:37.496Z,12.40
2019-02-15T17:16:07.029Z,10.60
2019-02-15T17:18:36.576Z,11.20
2019-02-15T17:21:06.145Z,11.20
2019-02-15T17:23:35.648Z,11.20
2019-02-15T17:26:05.194Z,13.20
2019-02-15T17:28:34.748Z,9.60
2019-02-15T17:31:04.284Z,11.40
2019-02-15T17:33:33.819Z,12.60
2019-02-15T17:36:04.889Z,11.80
2019-02-15T17:38:34.972Z,10.40
2019-02-15T17:41:04.576Z,12.00
2019-02-15T17:43:34.139Z,9.00
2019-02-15T17:46:03.696Z,10.80
2019-02-15T17:48:33.301Z,8.40
2019-02-15T17:51:02.863Z,13.00
2019-02-15T17:53:32.439Z,10.20
2019-02-15T17:56:02.013Z,10.60
2019-02-15T17:58:31.604Z,11.80
2019-02-15T18:01:01.218Z,13.20
2019-02-15T18:03:30.761Z,5.60
2019-02-15T18:06:00.355Z,11.00
2019-02-15T18:08:29.875Z,10.40
2019-02-15T18:10:59.736Z,14.00
2019-02-15T18:13:29.418Z,11.00
2019-02-15T18:15:58.958Z,10.20
2019-02-15T18:18:28.509Z,11.80
2019-02-15T18:20:58.045Z,8.80
2019-02-15T18:23:27.591Z,11.00
2019-02-15T18:25:57.249Z,11.20
2019-02-15T18:28:26.921Z,11.40
2019-02-15T18:30:56.456Z,13.60
2019-02-15T18:33:26.001Z,12.00
2019-02-15T18:35:55.595Z,8.60
2019-02-15T18:38:25.149Z,11.20
2019-02-15T18:40:54.715Z,10.20
2019-02-15T18:43:24.254Z,9.80
2019-02-15T18:45:53.778Z,11.60
2019-02-15T18:48:23.338Z,9.40
2019-02-15T18:50:52.930Z,8.00
2019-02-15T18:53:22.454Z,11.60
2019-02-15T18:55:53.459Z,11.20
2019-02-15T18:58:23.014Z,12.40
2019-02-15T19:00:52.534Z,11.60
2019-02-15T19:03:22.226Z,7.40
2019-02-15T19:05:51.754Z,11.60
2019-02-15T19:08:21.265Z,9.80
2019-02-15T19:10:50.858Z,8.80
2019-02-15T19:13:20.641Z,10.20
2019-02-15T19:15:50.183Z,9.00
2019-02-15T19:18:19.763Z,8.60
2019-02-15T19:20:49.305Z,10.00
2019-02-15T19:23:18.935Z,9.20
2019-02-15T19:25:48.508Z,8.20
2019-02-15T19:28:18.045Z,9.60
2019-02-15T19:30:47.531Z,12.20
2019-02-15T19:33:17.140Z,9.00
2019-02-15T19:35:46.692Z,12.40
2019-02-15T19:38:16.208Z,10.20
2019-02-15T19:40:45.797Z,10.20
2019-02-15T19:43:16.335Z,9.60
2019-02-15T19:45:48.078Z,11.00
2019-02-15T19:48:17.664Z,10.20
2019-02-15T19:50:47.196Z,9.80
2019-02-15T19:53:17.024Z,9.00
2019-02-15T19:55:46.538Z,11.80
2019-02-15T19:58:16.079Z,9.20
2019-02-15T20:00:45.635Z,10.00
2019-02-15T20:03:15.294Z,8.80
2019-02-15T20:05:44.836Z,9.60
2019-02-15T20:08:14.539Z,8.80
2019-02-15T20:10:44.037Z,11.40
2019-02-15T20:13:13.639Z,8.60
2019-02-15T20:15:43.205Z,9.00
2019-02-15T20:18:12.727Z,8.40
2019-02-15T20:20:42.256Z,9.80
2019-02-15T20:23:12.102Z,11.80
2019-02-15T20:25:41.655Z,10.20
2019-02-15T20:28:14.076Z,11.00
2019-02-15T20:30:42.455Z,9.20
2019-02-15T20:33:12.414Z,9.00
2019-02-15T20:35:41.967Z,8.00
2019-02-15T20:38:11.518Z,12.00
2019-02-15T20:40:41.045Z,8.80
2019-02-15T20:43:10.666Z,8.00
2019-02-15T20:45:40.216Z,9.00
2019-02-15T20:48:12.436Z,8.40
2019-02-15T20:50:41.241Z,8.80
2019-02-15T20:53:10.776Z,9.00
2019-02-15T20:55:40.305Z,11.00
2019-02-15T20:58:10.352Z,6.40
2019-02-15T21:00:39.892Z,7.80
2019-02-15T21:03:09.443Z,7.80
2019-02-15T21:05:38.996Z,7.60
2019-02-15T21:08:08.504Z,6.20
2019-02-15T21:10:38.023Z,9.00
2019-02-15T21:13:07.718Z,8.40
2019-02-15T21:15:37.260Z,7.80
2019-02-15T21:18:06.844Z,8.00
2019-02-15T21:20:36.437Z,8.60
2019-02-15T21:23:05.982Z,5.80
2019-02-15T21:25:35.512Z,7.40
2019-02-15T21:28:06.141Z,6.20
2019-02-15T21:30:35.907Z,7.20
2019-02-15T21:33:05.465Z,8.20
2019-02-15T21:35:36.091Z,8.40
2019-02-15T21:38:05.701Z,5.00
2019-02-15T21:40:35.202Z,5.40
2019-02-15T21:43:05.035Z,7.40
2019-02-15T21:45:34.581Z,6.20
2019-02-15T21:48:04.135Z,5.20
2019-02-15T21:50:33.817Z,6.20
2019-02-15T21:53:03.351Z,6.60
2019-02-15T21:55:32.920Z,8.20
2019-02-15T21:58:02.483Z,5.00
2019-02-15T22:00:33.090Z,6.00
2019-02-15T22:03:02.662Z,5.80
2019-02-15T22:05:32.286Z,7.00
2019-02-15T22:08:02.097Z,8.80
2019-02-15T22:10:31.875Z,8.00
2019-02-15T22:13:01.454Z,7.40
2019-02-15T22:15:31.000Z,6.20
2019-02-15T22:18:00.578Z,5.80
2019-02-15T22:20:30.141Z,5.80
2019-02-15T22:22:59.668Z,7.80
2019-02-15T22:25:29.284Z,4.80
2019-02-15T22:27:58.846Z,7.40
2019-02-15T22:30:29.500Z,5.80
2019-02-15T22:32:59.061Z,6.20
2019-02-15T22:35:28.898Z,5.00
2019-02-15T22:37:58.427Z,5.80
2019-02-15T22:40:34.917Z,6.20
2019-02-15T22:43:06.179Z,5.20
2019-02-15T22:45:35.872Z,4.80
2019-02-15T22:48:05.390Z,8.00
2019-02-15T22:50:36.368Z,5.20
2019-02-15T22:53:07.445Z,4.00
2019-02-15T22:55:36.992Z,7.20
2019-02-15T22:58:06.594Z,4.80
2019-02-15T23:00:48.112Z,7.20
2019-02-15T23:03:18.963Z,7.40
2019-02-15T23:05:48.643Z,5.60
2019-02-15T23:08:18.181Z,5.00
2019-02-15T23:10:47.769Z,7.00
2019-02-15T23:13:17.351Z,7.00
2019-02-15T23:15:46.869Z,5.00
2019-02-15T23:18:16.451Z,7.00
2019-02-15T23:20:45.962Z,8.40
2019-02-15T23:23:15.607Z,6.20
2019-02-15T23:25:45.181Z,5.00
2019-02-15T23:28:14.749Z,5.20
2019-02-15T23:30:44.291Z,5.00
2019-02-15T23:33:13.832Z,5.00
2019-02-15T23:35:43.369Z,3.60
2019-02-15T23:38:12.951Z,1.20
2019-02-15T23:40:42.499Z,5.00
2019-02-15T23:43:12.028Z,4.80
2019-02-15T23:45:41.554Z,7.00
2019-02-15T23:48:11.252Z,7.20
2019-02-15T23:50:42.108Z,7.00
2019-02-15T23:53:11.764Z,4.80
2019-02-15T23:55:41.316Z,5.20
2019-02-15T23:58:10.848Z,4.80
